LiveATC.Net - Listen to live air traffic control over the Internet!


ICAO: KSFM  IATA: SFM   Airport: Sanford Seacoast Regional Airport
City: Sanford   State/Province: Maine
Country: United States   Continent: North America
KSFM METAR Weather: KSFM 060556Z AUTO VRB04KT 8SM -RA OVC006 17/16 A2971 RMK AO2 CIG 004V010 SLP063 P0006 60049 T01670161 10189 20167 58028
KSFM Flight Activity (FlightAware)
KSFM Airport Info   (iFlightPlanner)
KSFM VFR Sectional Chart   (iFlightPlanner) 
KSFM IFR Low Altitude Chart   (iFlightPlanner) 
KSFM IFR High Altitude Chart   (iFlightPlanner) 

KSFM CTAF
Feed Status: UP   Listeners: 0
Listen in your browser - HTML5 player (in browser, HTML5)
Click here to listen with your own player (launches your MP3 player)
Archive Access: KSFM CTAF
FacilityFrequency
CTAF123.075

NOTICE

Unauthorized use prohibited. See LiveATC.net Terms of Service


Airport/ARTCC Code
Frequency Search
(e.g., 124.400, 128.75)
Site-wide search
 


Browse Feeds
Top 50 Feeds
HF Oceanic Feeds
Coverage Map
Bad Weather Areas

LiveATC FAQ
Offer LiveATC feed
Contact LiveATC.net
Press Inquiries

LiveATC on iPhone
LiveATC on Android

LiveATC Mobile
(Mobile browser)

ATC Audio Archives
Interesting Recordings

LiveATC Forums


Home Page
About LiveATC.net


Terms of Use
Privacy Policy

AIRMETs/SIGMETs

FAA Airport Status
NAS Status
Arrival Demand


Server Software By:
Icecast.org
Liquidsoap